| time (UTC) | temp C | wind direction | speed KPH | gust KPH | rain 1hr cm | rain 24hr cm | rain mn cm | humidity % | barometer mb |
| 20260507103606 | 18 | 57 | 4.8 | 9.7 | 0.00 | 0.23 | 0.15 | 59 | 1013.2 |
| 20260507102704 | 18 | 227 | 4.8 | 9.7 | 0.00 | 0.23 | 0.15 | 61 | 1013.4 |
| 20260507101803 | 18 | 238 | 8.0 | 17.7 | 0.00 | 0.23 | 0.15 | 63 | 1013.6 |
| 20260507100903 | 18 | 240 | 8.0 | 19.3 | 0.00 | 0.23 | 0.15 | 67 | 1013.4 |
| 20260507100003 | 17 | 289 | 3.2 | 11.3 | 0.00 | 0.23 | 0.15 | 64 | 1013.3 |
| 20260507095403 | 18 | 254 | 4.8 | 12.9 | 0.00 | 0.23 | 0.15 | 66 | 1013.4 |
| 20260507094503 | 19 | 182 | 6.4 | 12.9 | 0.00 | 0.23 | 0.15 | 63 | 1013.5 |
| 20260507093603 | 19 | 200 | 6.4 | 11.3 | 0.00 | 0.23 | 0.15 | 64 | 1013.6 |
| 20260507092706 | 19 | 143 | 4.8 | 9.7 | 0.00 | 0.23 | 0.15 | 61 | 1013.6 |
| 20260507091803 | 18 | 99 | 4.8 | 9.7 | 0.00 | 0.23 | 0.15 | 65 | 1013.7 |
| 20260507090903 | 18 | 112 | 4.8 | 8.0 | 0.00 | 0.23 | 0.15 | 66 | 1013.6 |
| 20260507090004 | 16 | 145 | 4.8 | 12.9 | 0.00 | 0.23 | 0.15 | 70 | 1013.7 |
| 20260507085406 | 17 | 79 | 4.8 | 11.3 | 0.00 | 0.23 | 0.15 | 71 | 1013.7 |
| 20260507084505 | 17 | 109 | 6.4 | 12.9 | 0.00 | 0.23 | 0.15 | 69 | 1013.7 |
| 20260507083603 | 17 | 131 | 6.4 | 11.3 | 0.00 | 0.23 | 0.15 | 69 | 1013.3 |
| 20260507082703 | 16 | 167 | 3.2 | 9.7 | 0.00 | 0.23 | 0.15 | 72 | 1013.7 |
| 20260507081803 | 17 | 146 | 8.0 | 16.1 | 0.00 | 0.23 | 0.15 | 72 | 1013.7 |
| 20260507080903 | 17 | 173 | 4.8 | 9.7 | 0.00 | 0.23 | 0.15 | 70 | 1013.8 |
| 20260507080003 | 17 | 160 | 6.4 | 9.7 | 0.00 | 0.23 | 0.15 | 71 | 1013.7 |
| 20260507075403 | 16 | 145 | 6.4 | 12.9 | 0.00 | 0.23 | 0.15 | 73 | 1013.7 |
| 20260507074503 | 16 | 134 | 6.4 | 12.9 | 0.00 | 0.23 | 0.15 | 74 | 1013.7 |
| 20260507073603 | 15 | 146 | 8.0 | 12.9 | 0.00 | 0.23 | 0.15 | 77 | 1013.9 |
| 20260507072718 | 14 | 163 | 6.4 | 12.9 | 0.00 | 0.23 | 0.15 | 81 | 1013.9 |
| 20260507071803 | 15 | 160 | 8.0 | 14.5 | 0.00 | 0.23 | 0.15 | 83 | 1013.5 |
| 20260507070903 | 15 | 148 | 6.4 | 11.3 | 0.00 | 0.23 | 0.15 | 84 | 1013.7 |
| 20260507070005 | 15 | 149 | 6.4 | 16.1 | 0.00 | 0.23 | 0.15 | 83 | 1013.9 |
| 20260507065403 | 15 | 143 | 8.0 | 14.5 | 0.00 | 0.23 | 0.15 | 82 | 1013.7 |
| 20260507064504 | 15 | 145 | 6.4 | 12.9 | 0.00 | 0.23 | 0.15 | 82 | 1013.7 |
| 20260507063606 | 15 | 155 | 4.8 | 9.7 | 0.00 | 0.23 | 0.15 | 81 | 1013.5 |
| 20260507062704 | 15 | 150 | 4.8 | 8.0 | 0.00 | 0.25 | 0.15 | 82 | 1013.6 |
| 20260507061804 | 14 | 137 | 4.8 | 9.7 | 0.00 | 0.25 | 0.15 | 87 | 1013.5 |
| 20260507060905 | 13 | 91 | 4.8 | 6.4 | 0.00 | 0.28 | 0.15 | 88 | 1013.5 |
| 20260507060003 | 13 | 89 | 4.8 | 8.0 | 0.00 | 0.28 | 0.15 | 88 | 1013.4 |
| 20260507055403 | 13 | 90 | 4.8 | 8.0 | 0.00 | 0.28 | 0.15 | 88 | 1013.4 |
| 20260507054505 | 13 | 103 | 4.8 | 8.0 | 0.00 | 0.30 | 0.15 | 89 | 1013.6 |
| 20260507053603 | 13 | 123 | 8.0 | 12.9 | 0.00 | 0.30 | 0.15 | 89 | 1013.3 |
| 20260507052704 | 13 | 140 | 8.0 | 11.3 | 0.00 | 0.33 | 0.15 | 90 | 1013.2 |
| 20260507051824 | 13 | 108 | 6.4 | 11.3 | 0.00 | 0.33 | 0.15 | 90 | 1013.3 |
| 20260507050903 | 13 | 117 | 4.8 | 8.0 | 0.00 | 0.33 | 0.15 | 93 | 1013.2 |
| 20260507050024 | 13 | 130 | 3.2 | 4.8 | 0.00 | 0.33 | 0.15 | 92 | 1013.3 |
| 20260507045403 | 13 | 162 | 3.2 | 6.4 | 0.00 | 0.33 | 0.15 | 93 | 1013.2 |
| 20260507044504 | 13 | 155 | 3.2 | 4.8 | 0.00 | 0.36 | 0.15 | 93 | 1013.0 |
| 20260507043603 | 13 | 139 | 3.2 | 4.8 | 0.00 | 0.38 | 0.15 | 93 | 1012.9 |
| 20260507042703 | 13 | 137 | 3.2 | 6.4 | 0.00 | 0.38 | 0.15 | 92 | 1013.0 |
| 20260507041803 | 13 | 136 | 6.4 | 9.7 | 0.00 | 0.41 | 0.15 | 92 | 1012.8 |
| 20260507040903 | 13 | 118 | 4.8 | 9.7 | 0.00 | 0.38 | 0.15 | 92 | 1012.8 |
| 20260507040003 | 13 | 96 | 4.8 | 9.7 | 0.00 | 0.38 | 0.15 | 92 | 1012.8 |
| 20260507035403 | 13 | 91 | 3.2 | 6.4 | 0.00 | 0.38 | 0.15 | 91 | 1012.7 |
| 20260507034503 | 13 | 176 | 3.2 | 6.4 | 0.00 | 0.38 | 0.15 | 91 | 1012.6 |
| 20260507033606 | 13 | 152 | 6.4 | 11.3 | 0.00 | 0.38 | 0.15 | 91 | 1012.5 |
| 20260507032703 | 13 | 136 | 8.0 | 11.3 | 0.03 | 0.38 | 0.15 | 91 | 1012.3 |
| 20260507031803 | 13 | 139 | 6.4 | 9.7 | 0.03 | 0.38 | 0.15 | 90 | 1012.4 |
| 20260507030924 | 13 | 155 | 6.4 | 9.7 | 0.03 | 0.38 | 0.15 | 90 | 1012.6 |
| 20260507030003 | 13 | 182 | 4.8 | 9.7 | 0.03 | 0.38 | 0.15 | 90 | 1012.8 |
| 20260507025404 | 13 | 157 | 6.4 | 11.3 | 0.03 | 0.38 | 0.15 | 90 | 1012.7 |
| 20260507024503 | 13 | 147 | 8.0 | 11.3 | 0.00 | 0.38 | 0.15 | 89 | 1012.5 |
| 20260507023603 | 13 | 151 | 8.0 | 14.5 | 0.03 | 0.38 | 0.15 | 89 | 1012.6 |
| 20260507022703 | 13 | 149 | 6.4 | 14.5 | 0.03 | 0.38 | 0.13 | 90 | 1012.6 |
| 20260507021804 | 13 | 149 | 3.2 | 6.4 | 0.03 | 0.38 | 0.13 | 91 | 1012.5 |
| 20260507020903 | 13 | 158 | 3.2 | 4.8 | 0.03 | 0.38 | 0.13 | 91 | 1012.7 |
| 20260507020024 | 13 | 135 | 3.2 | 6.4 | 0.03 | 0.38 | 0.13 | 90 | 1012.3 |
| 20260507015403 | 13 | 116 | 3.2 | 8.0 | 0.03 | 0.46 | 0.13 | 90 | 1012.4 |
| 20260507014503 | 14 | 118 | 6.4 | 14.5 | 0.05 | 0.46 | 0.13 | 90 | 1012.3 |
| 20260507013606 | 14 | 128 | 8.0 | 12.9 | 0.03 | 0.43 | 0.13 | 90 | 1012.2 |
| 20260507012703 | 14 | 129 | 8.0 | 14.5 | 0.03 | 0.43 | 0.10 | 90 | 1012.3 |
| 20260507011805 | 14 | 124 | 6.4 | 11.3 | 0.00 | 0.43 | 0.10 | 89 | 1012.6 |
| 20260507010904 | 14 | 141 | 8.0 | 12.9 | 0.00 | 0.43 | 0.10 | 89 | 1012.6 |
| 20260507010003 | 14 | 147 | 8.0 | 12.9 | 0.00 | 0.43 | 0.10 | 89 | 1012.5 |
| 20260507005403 | 14 | 152 | 6.4 | 9.7 | 0.00 | 0.43 | 0.10 | 89 | 1012.4 |
| 20260507004503 | 14 | 124 | 8.0 | 14.5 | 0.00 | 0.41 | 0.10 | 89 | 1012.5 |
| 20260507003618 | 14 | 100 | 6.4 | 14.5 | 0.00 | 0.41 | 0.10 | 89 | 1012.4 |
| 20260507002705 | 14 | 117 | 6.4 | 9.7 | 0.00 | 0.41 | 0.10 | 89 | 1012.2 |
| 20260507001824 | 14 | 140 | 6.4 | 11.3 | 0.03 | 0.41 | 0.10 | 90 | 1012.6 |
| 20260507000924 | 14 | 153 | 6.4 | 11.3 | 0.03 | 0.41 | 0.10 | 90 | 1012.4 |
| 20260507000003 | 14 | 172 | 4.8 | 9.7 | 0.05 | 0.41 | 0.10 | 88 | 1012.4 |
| 20260506235403 | 14 | 157 | 6.4 | 14.5 | 0.05 | 0.41 | 0.10 | 88 | 1012.7 |
| 20260506234503 | 14 | 136 | 6.4 | 12.9 | 0.05 | 0.41 | 0.10 | 88 | 1012.7 |
| 20260506233603 | 14 | 128 | 6.4 | 11.3 | 0.05 | 0.41 | 0.10 | 88 | 1012.6 |
| 20260506232703 | 14 | 143 | 6.4 | 14.5 | 0.05 | 0.41 | 0.08 | 88 | 1012.6 |
| 20260506231804 | 14 | 132 | 8.0 | 14.5 | 0.05 | 0.38 | 0.08 | 90 | 1012.6 |
| 20260506230903 | 14 | 111 | 8.0 | 11.3 | 0.05 | 0.38 | 0.05 | 89 | 1012.9 |
| 20260506230003 | 15 | 104 | 6.4 | 9.7 | 0.05 | 0.38 | 0.05 | 88 | 1012.7 |
| 20260506225403 | 15 | 101 | 3.2 | 6.4 | 0.05 | 0.38 | 0.05 | 86 | 1013.1 |
| 20260506224503 | 15 | 117 | 4.8 | 9.7 | 0.08 | 0.38 | 0.05 | 84 | 1012.7 |
| 20260506223603 | 15 | 124 | 6.4 | 9.7 | 0.10 | 0.38 | 0.05 | 83 | 1012.6 |
| 20260506222703 | 15 | 109 | 6.4 | 9.7 | 0.10 | 0.36 | 0.03 | 82 | 1012.8 |
| 20260506221803 | 15 | 109 | 6.4 | 9.7 | 0.10 | 0.36 | 0.03 | 83 | 1012.8 |
| 20260506220914 | 15 | 116 | 4.8 | 6.4 | 0.08 | 0.33 | 0.03 | 82 | 1012.7 |
| 20260506220004 | 15 | 125 | 4.8 | 6.4 | 0.05 | 0.33 | 0.00 | 82 | 1012.8 |
| 20260506215403 | 15 | 141 | 4.8 | 8.0 | 0.05 | 0.30 | 0.30 | 81 | 1012.7 |
| 20260506214518 | 15 | 163 | 4.8 | 8.0 | 0.03 | 0.28 | 0.30 | 80 | 1012.6 |
| 20260506213603 | 15 | 171 | 6.4 | 12.9 | 0.03 | 0.28 | 0.28 | 77 | 1012.9 |
| 20260506212703 | 16 | 173 | 8.0 | 14.5 | 0.00 | 0.25 | 0.25 | 75 | 1012.7 |
| 20260506211824 | 16 | 186 | 8.0 | 17.7 | 0.00 | 0.25 | 0.25 | 73 | 1012.6 |
| 20260506210924 | 16 | 184 | 8.0 | 16.1 | 0.00 | 0.25 | 0.25 | 71 | 1012.7 |
| 20260506210003 | 16 | 180 | 9.7 | 19.3 | 0.00 | 0.25 | 0.25 | 71 | 1012.5 |
| 20260506205404 | 16 | 169 | 8.0 | 14.5 | 0.00 | 0.25 | 0.25 | 72 | 1012.7 |
| 20260506204503 | 16 | 181 | 8.0 | 14.5 | 0.00 | 0.25 | 0.25 | 72 | 1012.4 |
| 20260506203603 | 16 | 184 | 8.0 | 16.1 | 0.00 | 0.25 | 0.25 | 72 | 1012.6 |
| 20260506202703 | 16 | 212 | 8.0 | 14.5 | 0.00 | 0.25 | 0.25 | 73 | 1012.5 |
| 20260506201803 | 16 | 193 | 8.0 | 16.1 | 0.00 | 0.25 | 0.25 | 72 | 1012.5 |
| 20260506200903 | 16 | 183 | 8.0 | 24.1 | 0.00 | 0.25 | 0.25 | 71 | 1012.3 |
| 20260506200014 | 16 | 161 | 11.3 | 24.1 | 0.00 | 0.25 | 0.25 | 70 | 1012.0 |
| 20260506195403 | 16 | 168 | 8.0 | 12.9 | 0.00 | 0.25 | 0.25 | 73 | 1012.3 |
| 20260506194503 | 16 | 172 | 8.0 | 17.7 | 0.00 | 0.25 | 0.25 | 73 | 1012.6 |
| 20260506193603 | 16 | 169 | 11.3 | 22.5 | 0.00 | 0.25 | 0.25 | 72 | 1012.3 |
| 20260506192710 | 16 | 177 | 11.3 | 19.3 | 0.00 | 0.25 | 0.25 | 72 | 1012.3 |
| 20260506191803 | 16 | 185 | 12.9 | 22.5 | 0.00 | 0.25 | 0.25 | 72 | 1012.1 |
| 20260506190904 | 16 | 180 | 11.3 | 19.3 | 0.00 | 0.25 | 0.25 | 71 | 1012.2 |
| 20260506190024 | 16 | 186 | 9.7 | 17.7 | 0.00 | 0.25 | 0.25 | 72 | 1011.8 |
| 20260506185424 | 16 | 189 | 11.3 | 24.1 | 0.00 | 0.25 | 0.25 | 71 | 1011.8 |
| 20260506184503 | 16 | 210 | 14.5 | 29.0 | 0.00 | 0.25 | 0.25 | 73 | 1011.9 |
| 20260506183603 | 17 | 206 | 14.5 | 27.4 | 0.00 | 0.25 | 0.25 | 71 | 1011.8 |
| 20260506182703 | 17 | 201 | 14.5 | 27.4 | 0.00 | 0.25 | 0.25 | 69 | 1011.4 |
| 20260506181806 | 17 | 193 | 12.9 | 22.5 | 0.00 | 0.25 | 0.25 | 65 | 1011.4 |
| 20260506180903 | 17 | 190 | 12.9 | 30.6 | 0.00 | 0.25 | 0.25 | 63 | 1011.4 |
| 20260506180004 | 17 | 184 | 11.3 | 20.9 | 0.00 | 0.25 | 0.25 | 63 | 1011.4 |
| 20260506175403 | 18 | 195 | 12.9 | 24.1 | 0.00 | 0.25 | 0.25 | 63 | 1011.4 |
| 20260506174504 | 18 | 194 | 12.9 | 27.4 | 0.00 | 0.25 | 0.25 | 63 | 1011.3 |
| 20260506173603 | 18 | 188 | 12.9 | 29.0 | 0.00 | 0.25 | 0.25 | 63 | 1011.3 |
| 20260506172703 | 18 | 191 | 9.7 | 19.3 | 0.00 | 0.25 | 0.25 | 65 | 1011.3 |
| 20260506171804 | 18 | 196 | 11.3 | 22.5 | 0.00 | 0.25 | 0.25 | 65 | 1011.3 |
| 20260506170903 | 18 | 203 | 12.9 | 22.5 | 0.00 | 0.25 | 0.25 | 65 | 1011.3 |
| 20260506170003 | 18 | 207 | 16.1 | 27.4 | 0.00 | 0.25 | 0.25 | 65 | 1011.1 |
| 20260506165403 | 18 | 208 | 17.7 | 29.0 | 0.00 | 0.25 | 0.25 | 65 | 1011.3 |
| 20260506164503 | 18 | 205 | 14.5 | 29.0 | 0.00 | 0.25 | 0.25 | 64 | 1011.4 |
| 20260506163603 | 18 | 215 | 14.5 | 30.6 | 0.00 | 0.25 | 0.25 | 65 | 1011.0 |
| 20260506162703 | 18 | 209 | 16.1 | 30.6 | 0.00 | 0.25 | 0.25 | 64 | 1011.2 |
| 20260506161824 | 18 | 212 | 14.5 | 25.7 | 0.00 | 0.25 | 0.25 | 64 | 1011.0 |
| 20260506160903 | 19 | 214 | 19.3 | 33.8 | 0.00 | 0.25 | 0.25 | 62 | 1011.1 |
| 20260506160004 | 19 | 210 | 17.7 | 32.2 | 0.00 | 0.25 | 0.25 | 61 | 1010.9 |
| 20260506155403 | 19 | 210 | 17.7 | 29.0 | 0.00 | 0.25 | 0.25 | 61 | 1011.1 |
| 20260506154503 | 20 | 202 | 16.1 | 29.0 | 0.00 | 0.25 | 0.25 | 60 | 1010.9 |
| 20260506153603 | 20 | 191 | 16.1 | 33.8 | 0.00 | 0.25 | 0.25 | 59 | 1010.9 |
| 20260506152704 | 20 | 196 | 16.1 | 30.6 | 0.00 | 0.25 | 0.25 | 59 | 1010.9 |
| 20260506151804 | 20 | 195 | 14.5 | 29.0 | 0.00 | 0.25 | 0.25 | 59 | 1010.9 |
| 20260506150903 | 20 | 203 | 14.5 | 27.4 | 0.00 | 0.25 | 0.25 | 59 | 1010.8 |
| 20260506150003 | 20 | 193 | 16.1 | 32.2 | 0.00 | 0.25 | 0.25 | 58 | 1010.9 |
| 20260506145403 | 20 | 193 | 14.5 | 24.1 | 0.00 | 0.25 | 0.25 | 57 | 1010.8 |
| 20260506144503 | 20 | 208 | 17.7 | 32.2 | 0.00 | 0.25 | 0.25 | 56 | 1010.7 |
| 20260506143604 | 20 | 190 | 14.5 | 27.4 | 0.00 | 0.25 | 0.25 | 54 | 1011.0 |
| 20260506142703 | 20 | 190 | 12.9 | 27.4 | 0.00 | 0.25 | 0.25 | 55 | 1011.0 |
| 20260506141824 | 20 | 193 | 14.5 | 27.4 | 0.00 | 0.25 | 0.25 | 55 | 1010.7 |
| 20260506140903 | 20 | 182 | 16.1 | 33.8 | 0.00 | 0.25 | 0.25 | 55 | 1010.9 |
| 20260506140003 | 20 | 173 | 17.7 | 33.8 | 0.00 | 0.25 | 0.25 | 56 | 1010.7 |
| 20260506135403 | 20 | 177 | 16.1 | 30.6 | 0.00 | 0.25 | 0.25 | 55 | 1010.9 |
| 20260506134506 | 20 | 196 | 16.1 | 30.6 | 0.00 | 0.25 | 0.25 | 54 | 1011.2 |
| 20260506133603 | 20 | 205 | 16.1 | 29.0 | 0.00 | 0.25 | 0.25 | 55 | 1011.2 |
| 20260506132703 | 20 | 195 | 16.1 | 35.4 | 0.00 | 0.25 | 0.25 | 55 | 1011.4 |
| 20260506131803 | 20 | 186 | 11.3 | 24.1 | 0.00 | 0.25 | 0.25 | 55 | 1011.5 |
| 20260506130903 | 20 | 188 | 16.1 | 30.6 | 0.00 | 0.25 | 0.25 | 55 | 1011.4 |
| 20260506130003 | 20 | 183 | 14.5 | 35.4 | 0.00 | 0.25 | 0.25 | 54 | 1011.7 |
| 20260506125403 | 20 | 176 | 19.3 | 35.4 | 0.00 | 0.25 | 0.25 | 52 | 1011.4 |
| 20260506124503 | 20 | 180 | 19.3 | 35.4 | 0.00 | 0.25 | 0.25 | 52 | 1011.4 |
| 20260506123603 | 20 | 185 | 16.1 | 32.2 | 0.00 | 0.25 | 0.25 | 52 | 1011.1 |
| 20260506122724 | 20 | 201 | 16.1 | 35.4 | 0.00 | 0.25 | 0.25 | 53 | 1011.5 |
| 20260506121803 | 20 | 197 | 16.1 | 35.4 | 0.00 | 0.25 | 0.25 | 55 | 1011.3 |
| 20260506120924 | 20 | 203 | 19.3 | 35.4 | 0.00 | 0.25 | 0.25 | 54 | 1011.3 |
| 20260506120024 | 20 | 216 | 20.9 | 35.4 | 0.00 | 0.25 | 0.25 | 54 | 1011.3 |
| 20260506115403 | 20 | 217 | 24.1 | 41.8 | 0.00 | 0.25 | 0.25 | 53 | 1011.5 |
| 20260506114503 | 20 | 210 | 20.9 | 35.4 | 0.00 | 0.25 | 0.25 | 54 | 1011.6 |
| 20260506113603 | 20 | 217 | 20.9 | 35.4 | 0.00 | 0.25 | 0.25 | 54 | 1011.6 |
| 20260506112703 | 20 | 218 | 19.3 | 30.6 | 0.00 | 0.25 | 0.25 | 56 | 1011.4 |
| 20260506111806 | 20 | 190 | 16.1 | 27.4 | 0.00 | 0.25 | 0.25 | 54 | 1011.5 |
| 20260506110924 | 20 | 181 | 14.5 | 29.0 | 0.00 | 0.25 | 0.25 | 51 | 1011.6 |
| 20260506110024 | 20 | 184 | 14.5 | 29.0 | 0.00 | 0.25 | 0.25 | 51 | 1011.6 |
| 20260506105405 | 20 | 187 | 16.1 | 30.6 | 0.00 | 0.25 | 0.25 | 50 | 1011.8 |
| 20260506104503 | 20 | 198 | 17.7 | 33.8 | 0.00 | 0.25 | 0.25 | 49 | 1011.6 |